createdAt,value
2018-09-05T00:01:06.350Z,40.40
2018-09-05T00:03:35.072Z,39.40
2018-09-05T00:06:03.821Z,48.70
2018-09-05T00:08:33.654Z,61.07
2018-09-05T00:11:02.462Z,47.40
2018-09-05T00:13:31.135Z,58.27
2018-09-05T00:15:59.709Z,60.57
2018-09-05T00:18:28.397Z,51.27
2018-09-05T00:20:57.069Z,46.77
2018-09-05T00:23:25.768Z,45.77
2018-09-05T00:25:54.412Z,49.20
2018-09-05T00:28:23.140Z,51.70
2018-09-05T00:30:51.777Z,47.30
2018-09-05T00:33:20.626Z,48.27
2018-09-05T00:35:49.413Z,43.43
2018-09-05T00:38:18.081Z,45.33
2018-09-05T00:40:46.750Z,49.40
2018-09-05T00:43:15.505Z,40.23
2018-09-05T00:45:44.309Z,41.63
2018-09-05T00:48:14.146Z,45.07
2018-09-05T00:50:42.856Z,45.57
2018-09-05T00:53:11.567Z,43.10
2018-09-05T00:55:40.228Z,42.20
2018-09-05T00:58:08.957Z,52.30
2018-09-05T01:00:37.761Z,51.80
2018-09-05T01:03:06.450Z,43.57
2018-09-05T01:05:35.073Z,44.17
2018-09-05T01:08:03.691Z,42.73
2018-09-05T01:10:32.365Z,38.43
2018-09-05T01:13:01.036Z,41.27
2018-09-05T01:15:29.805Z,40.90
2018-09-05T01:17:58.529Z,46.27
2018-09-05T01:20:27.164Z,45.20
2018-09-05T01:22:55.848Z,47.97
2018-09-05T01:25:25.569Z,47.43
2018-09-05T01:27:54.159Z,46.83
2018-09-05T01:30:26.589Z,46.80
2018-09-05T01:32:55.500Z,45.43
2018-09-05T01:35:24.132Z,45.47
2018-09-05T01:37:52.761Z,41.20
2018-09-05T01:40:21.786Z,44.03
2018-09-05T01:42:50.449Z,38.23
2018-09-05T01:45:19.110Z,33.73
2018-09-05T01:47:47.799Z,38.53
2018-09-05T01:50:16.409Z,37.53
2018-09-05T01:52:45.051Z,39.60
2018-09-05T01:55:13.645Z,41.10
2018-09-05T01:57:42.300Z,38.53
2018-09-05T02:00:17.084Z,41.77
2018-09-05T02:02:45.665Z,44.70
2018-09-05T02:05:14.332Z,44.73
2018-09-05T02:07:43.137Z,42.90
2018-09-05T02:10:11.951Z,48.23
2018-09-05T02:12:41.617Z,52.70
2018-09-05T02:15:10.388Z,49.13
2018-09-05T02:17:39.108Z,47.40
2018-09-05T02:20:07.885Z,45.40
2018-09-05T02:22:36.623Z,45.73
2018-09-05T02:25:05.368Z,46.60
2018-09-05T02:27:34.101Z,40.03
2018-09-05T02:30:02.865Z,41.10
2018-09-05T02:32:31.569Z,45.07
2018-09-05T02:35:00.410Z,40.97
2018-09-05T02:37:29.215Z,46.53
2018-09-05T02:39:57.918Z,38.20
2018-09-05T02:42:26.720Z,36.57
2018-09-05T02:44:55.464Z,37.07
2018-09-05T02:47:24.225Z,35.13
2018-09-05T02:49:52.902Z,40.50
2018-09-05T02:52:21.489Z,35.40
2018-09-05T02:54:57.841Z,36.03
2018-09-05T02:57:26.473Z,36.60
2018-09-05T02:59:55.139Z,32.53
2018-09-05T03:02:23.759Z,34.13
2018-09-05T03:04:52.409Z,38.30
2018-09-05T03:07:21.068Z,39.07
2018-09-05T03:09:49.771Z,42.70
2018-09-05T03:12:19.607Z,35.63
2018-09-05T03:14:49.289Z,38.73
2018-09-05T03:17:18.020Z,41.60
2018-09-05T03:19:46.783Z,38.10
2018-09-05T03:22:15.437Z,42.20
2018-09-05T03:24:44.063Z,44.43
2018-09-05T03:27:12.801Z,50.10
2018-09-05T03:29:41.561Z,47.23
2018-09-05T03:32:10.451Z,44.47
2018-09-05T03:34:39.140Z,47.77
2018-09-05T03:37:08.544Z,49.07
2018-09-05T03:39:37.361Z,49.63
2018-09-05T03:42:06.061Z,48.20
2018-09-05T03:44:34.733Z,49.87
2018-09-05T03:47:03.349Z,51.03
2018-09-05T03:49:32.006Z,48.67
2018-09-05T03:52:00.684Z,45.90
2018-09-05T03:54:29.386Z,45.07
2018-09-05T03:56:58.006Z,45.90
2018-09-05T03:59:26.712Z,38.93
2018-09-05T04:01:55.301Z,38.63
2018-09-05T04:04:23.900Z,40.90
2018-09-05T04:06:52.594Z,38.13
2018-09-05T04:09:21.242Z,36.40
2018-09-05T04:11:49.871Z,37.13
2018-09-05T04:14:18.468Z,41.27
2018-09-05T04:16:47.129Z,43.30
2018-09-05T04:19:15.765Z,41.27
2018-09-05T04:21:44.348Z,44.87
2018-09-05T04:24:12.962Z,44.67
2018-09-05T04:26:41.573Z,42.80
2018-09-05T04:29:10.181Z,38.27
2018-09-05T04:31:38.812Z,42.93
2018-09-05T04:34:07.483Z,37.13
2018-09-05T04:36:36.080Z,47.50
2018-09-05T04:39:06.907Z,54.53
2018-09-05T04:41:35.574Z,50.23
2018-09-05T04:44:04.773Z,55.87
2018-09-05T04:46:33.431Z,58.60
2018-09-05T04:49:02.118Z,53.83
2018-09-05T04:51:30.997Z,50.20
2018-09-05T04:53:59.621Z,55.57
2018-09-05T04:56:28.186Z,52.50
2018-09-05T04:58:56.782Z,46.50
2018-09-05T05:01:25.539Z,40.40
2018-09-05T05:03:54.200Z,54.63
2018-09-05T05:06:22.865Z,46.47
2018-09-05T05:08:51.456Z,52.37
2018-09-05T05:11:19.978Z,49.00
2018-09-05T05:13:48.577Z,51.20
2018-09-05T05:16:17.166Z,51.57
2018-09-05T05:18:45.817Z,42.43
2018-09-05T05:21:14.372Z,49.53
2018-09-05T05:23:43.014Z,45.00
2018-09-05T05:26:11.659Z,47.03
2018-09-05T05:28:40.304Z,44.30
2018-09-05T05:31:08.932Z,48.10
2018-09-05T05:33:37.547Z,40.93
2018-09-05T05:36:06.183Z,40.30
2018-09-05T05:38:34.843Z,47.57
2018-09-05T05:41:03.520Z,47.93
2018-09-05T05:43:32.143Z,47.17
2018-09-05T05:46:01.897Z,43.90
2018-09-05T05:48:30.520Z,44.80
2018-09-05T05:50:59.163Z,43.87
2018-09-05T05:53:27.793Z,36.20
2018-09-05T05:55:56.403Z,39.33
2018-09-05T05:58:25.062Z,36.00
2018-09-05T06:00:53.787Z,37.60
2018-09-05T06:03:22.437Z,34.80
2018-09-05T06:05:51.093Z,32.73
2018-09-05T06:08:19.704Z,36.47
2018-09-05T06:10:48.277Z,36.43
2018-09-05T06:13:16.907Z,29.60
2018-09-05T06:15:45.477Z,29.27
2018-09-05T06:18:14.081Z,30.67
2018-09-05T06:20:42.707Z,26.87
2018-09-05T06:23:11.340Z,30.00
2018-09-05T06:25:39.932Z,27.23
2018-09-05T06:28:08.626Z,28.47
2018-09-05T06:30:37.409Z,32.87
2018-09-05T06:33:05.968Z,36.97
2018-09-05T06:35:34.648Z,34.23
2018-09-05T06:38:03.263Z,42.17
2018-09-05T06:40:31.874Z,36.07
2018-09-05T06:43:00.532Z,41.20
2018-09-05T06:45:29.297Z,40.57
2018-09-05T06:47:57.845Z,47.47
2018-09-05T06:50:26.555Z,57.83
2018-09-05T06:52:55.174Z,60.23
2018-09-05T06:55:23.724Z,64.10
2018-09-05T06:57:52.434Z,60.00
2018-09-05T07:00:21.085Z,55.53
2018-09-05T07:02:49.755Z,49.17
2018-09-05T07:05:18.987Z,45.00
2018-09-05T07:07:47.773Z,40.50
2018-09-05T07:10:16.290Z,43.50
2018-09-05T07:12:44.964Z,42.00
2018-09-05T07:15:13.636Z,37.77
2018-09-05T07:17:42.303Z,38.47
2018-09-05T07:20:10.909Z,44.50
2018-09-05T07:22:39.557Z,45.97
2018-09-05T07:25:08.444Z,43.80
2018-09-05T07:27:37.125Z,51.67
2018-09-05T07:30:05.799Z,41.27
2018-09-05T07:32:34.395Z,43.53
2018-09-05T07:35:03.003Z,40.03
2018-09-05T07:37:31.571Z,48.37
2018-09-05T07:40:00.217Z,51.47
2018-09-05T07:42:28.883Z,48.87
2018-09-05T07:44:57.476Z,50.47
2018-09-05T07:47:26.129Z,39.43
2018-09-05T07:49:54.872Z,35.07
2018-09-05T07:52:23.418Z,43.17
2018-09-05T07:54:55.269Z,40.53
2018-09-05T07:57:23.999Z,39.10
2018-09-05T07:59:52.537Z,40.50
2018-09-05T08:02:21.182Z,37.20
2018-09-05T08:04:49.893Z,46.57
2018-09-05T08:07:18.557Z,41.23
2018-09-05T08:09:47.147Z,45.33
2018-09-05T08:12:15.750Z,36.83
2018-09-05T08:14:44.319Z,37.60
2018-09-05T08:17:12.981Z,45.60
2018-09-05T08:19:41.624Z,48.57
2018-09-05T08:22:10.189Z,44.03
2018-09-05T08:24:38.884Z,48.70
2018-09-05T08:27:07.453Z,38.80
2018-09-05T08:29:36.076Z,35.20
2018-09-05T08:32:04.681Z,38.07
2018-09-05T08:34:33.239Z,36.03
2018-09-05T08:37:02.069Z,35.57
2018-09-05T08:39:30.459Z,35.10
2018-09-05T08:41:59.169Z,36.00
2018-09-05T08:44:27.848Z,33.50
2018-09-05T08:46:56.386Z,31.87
2018-09-05T08:49:25.017Z,34.60
2018-09-05T08:51:53.686Z,30.17
2018-09-05T08:54:22.255Z,32.23
2018-09-05T08:56:50.884Z,35.80
2018-09-05T08:59:19.522Z,35.53
2018-09-05T09:01:48.154Z,29.80
2018-09-05T09:04:16.736Z,30.93
2018-09-05T09:06:45.381Z,32.80
2018-09-05T09:09:14.033Z,31.53
2018-09-05T09:11:42.688Z,29.10
2018-09-05T09:14:11.288Z,29.47
2018-09-05T09:16:39.982Z,25.67
2018-09-05T09:19:08.570Z,29.47
2018-09-05T09:21:37.187Z,25.27
2018-09-05T09:24:06.164Z,27.20
2018-09-05T09:26:34.791Z,25.80
2018-09-05T09:29:03.397Z,25.47
2018-09-05T09:31:32.118Z,26.73
2018-09-05T09:34:00.692Z,27.50
2018-09-05T09:36:29.308Z,21.80
2018-09-05T09:38:57.927Z,23.20
2018-09-05T09:41:26.508Z,24.60
2018-09-05T09:43:55.142Z,21.73
2018-09-05T09:46:30.363Z,20.63
2018-09-05T09:48:59.001Z,21.30
2018-09-05T09:51:27.618Z,20.90
2018-09-05T09:53:56.229Z,25.77
2018-09-05T09:56:24.840Z,22.40
2018-09-05T09:58:53.420Z,20.77
2018-09-05T10:01:27.382Z,22.80
2018-09-05T10:04:01.330Z,19.50
2018-09-05T10:06:35.102Z,22.30
2018-09-05T10:09:09.821Z,21.63
2018-09-05T10:11:43.726Z,18.17
2018-09-05T10:14:17.612Z,19.37
2018-09-05T10:16:51.445Z,20.53
2018-09-05T10:19:20.040Z,22.33
2018-09-05T10:21:48.730Z,21.90
2018-09-05T10:24:17.291Z,21.53
2018-09-05T10:26:45.995Z,18.67
2018-09-05T10:29:14.695Z,19.50
2018-09-05T10:31:43.359Z,19.67
2018-09-05T10:34:11.976Z,17.63
2018-09-05T10:36:40.615Z,19.80
2018-09-05T10:39:10.269Z,19.90
2018-09-05T10:41:39.212Z,19.77
2018-09-05T10:44:08.510Z,20.73
2018-09-05T10:46:41.594Z,20.10
2018-09-05T10:49:10.136Z,18.00
2018-09-05T10:51:44.101Z,20.77
2018-09-05T10:54:12.779Z,20.67
2018-09-05T10:56:41.344Z,20.33
2018-09-05T10:59:09.995Z,19.40
2018-09-05T11:01:38.730Z,20.70
2018-09-05T11:04:07.343Z,19.43
2018-09-05T11:06:35.948Z,23.83
2018-09-05T11:09:06.811Z,21.23
2018-09-05T11:11:35.406Z,25.13
2018-09-05T11:14:04.087Z,19.70
2018-09-05T11:16:32.681Z,18.73
2018-09-05T11:19:01.301Z,19.30
2018-09-05T11:21:29.949Z,20.40
2018-09-05T11:23:58.571Z,19.97
2018-09-05T11:26:27.200Z,20.90
2018-09-05T11:28:56.360Z,21.87
2018-09-05T11:31:24.938Z,19.53
2018-09-05T11:33:53.632Z,19.50
2018-09-05T11:36:22.823Z,20.60
2018-09-05T11:38:51.501Z,20.00
2018-09-05T11:41:20.477Z,20.10
2018-09-05T11:43:50.071Z,19.20
2018-09-05T11:46:18.729Z,19.43
2018-09-05T11:48:47.425Z,19.90
2018-09-05T11:51:16.024Z,20.83
2018-09-05T11:53:44.652Z,19.93
2018-09-05T11:56:13.189Z,20.00
2018-09-05T11:58:41.846Z,17.30
2018-09-05T12:01:10.527Z,17.73
2018-09-05T12:03:39.140Z,19.90
2018-09-05T12:06:07.773Z,18.93
2018-09-05T12:08:36.401Z,18.70
2018-09-05T12:11:05.002Z,19.10
2018-09-05T12:13:33.659Z,19.77
2018-09-05T12:16:02.272Z,19.43
2018-09-05T12:18:30.888Z,18.40
2018-09-05T12:20:59.524Z,18.47
2018-09-05T12:23:28.131Z,17.57
2018-09-05T12:25:56.783Z,18.77
2018-09-05T12:28:25.422Z,18.20
2018-09-05T12:30:54.055Z,17.70
2018-09-05T12:33:22.657Z,20.00
2018-09-05T12:35:51.255Z,18.40
2018-09-05T12:38:19.842Z,21.60
2018-09-05T12:40:48.465Z,18.13
2018-09-05T12:43:17.101Z,18.83
2018-09-05T12:45:46.072Z,20.00
2018-09-05T12:48:14.768Z,18.67
2018-09-05T12:50:43.331Z,18.20
2018-09-05T12:53:12.000Z,18.30
2018-09-05T12:55:40.722Z,19.77
2018-09-05T12:58:09.435Z,17.77
2018-09-05T13:00:38.215Z,17.37
2018-09-05T13:03:06.806Z,18.37
2018-09-05T13:05:35.486Z,16.33
2018-09-05T13:08:04.150Z,19.93
2018-09-05T13:10:34.015Z,18.20
2018-09-05T13:13:02.600Z,18.53
2018-09-05T13:15:31.477Z,17.60
2018-09-05T13:18:00.037Z,18.87
2018-09-05T13:20:28.678Z,18.10
2018-09-05T13:22:57.259Z,19.13
2018-09-05T13:25:32.789Z,17.87
2018-09-05T13:28:01.333Z,18.93
2018-09-05T13:30:29.906Z,20.70
2018-09-05T13:32:58.515Z,17.93
2018-09-05T13:35:27.807Z,16.47
2018-09-05T13:37:56.665Z,16.63
2018-09-05T13:40:25.642Z,16.27
2018-09-05T13:42:54.246Z,16.30
2018-09-05T13:45:22.864Z,17.50
2018-09-05T13:47:51.496Z,16.30
2018-09-05T13:50:20.099Z,17.20
2018-09-05T13:52:48.669Z,16.17
2018-09-05T13:55:22.690Z,17.70
2018-09-05T13:57:51.244Z,18.47
2018-09-05T14:00:19.893Z,17.03
2018-09-05T14:02:48.623Z,15.80
2018-09-05T14:05:17.840Z,17.93
2018-09-05T14:07:46.407Z,17.67
2018-09-05T14:10:16.143Z,18.63
2018-09-05T14:12:45.393Z,16.73
2018-09-05T14:15:14.041Z,17.67
2018-09-05T14:17:42.654Z,16.60
2018-09-05T14:20:11.320Z,17.40
2018-09-05T14:22:39.917Z,18.23
2018-09-05T14:25:08.558Z,17.10
2018-09-05T14:27:37.200Z,17.20
2018-09-05T14:30:10.861Z,17.17
2018-09-05T14:32:39.468Z,16.40
2018-09-05T14:35:08.393Z,17.30
2018-09-05T14:37:37.264Z,17.27
2018-09-05T14:40:06.150Z,16.83
2018-09-05T14:42:35.008Z,18.77
2018-09-05T14:45:03.710Z,16.23
2018-09-05T14:47:32.313Z,16.73
2018-09-05T14:50:00.915Z,17.37
2018-09-05T14:52:29.466Z,17.87
2018-09-05T14:54:58.125Z,18.00
2018-09-05T14:57:26.708Z,19.90
2018-09-05T14:59:55.427Z,17.80
2018-09-05T15:02:23.979Z,16.90
2018-09-05T15:04:52.709Z,17.60
2018-09-05T15:07:21.400Z,16.73
2018-09-05T15:09:51.043Z,17.47
2018-09-05T15:12:19.775Z,18.30
2018-09-05T15:14:48.393Z,17.73
2018-09-05T15:17:17.000Z,17.30
2018-09-05T15:19:45.632Z,17.43
2018-09-05T15:22:14.257Z,18.60
2018-09-05T15:24:42.852Z,18.20
2018-09-05T15:27:11.445Z,17.50
2018-09-05T15:29:40.096Z,16.63
2018-09-05T15:32:08.709Z,19.33
2018-09-05T15:34:37.337Z,16.53
2018-09-05T15:37:05.964Z,17.33
2018-09-05T15:39:34.565Z,16.73
2018-09-05T15:42:03.258Z,16.70
2018-09-05T15:44:32.935Z,17.50
2018-09-05T15:47:01.777Z,17.87
2018-09-05T15:49:30.378Z,16.27
2018-09-05T15:51:59.005Z,16.30
2018-09-05T15:54:27.613Z,16.93
2018-09-05T15:56:56.262Z,17.17
2018-09-05T15:59:30.012Z,17.37
2018-09-05T16:01:58.697Z,17.33
2018-09-05T16:04:27.339Z,16.67
2018-09-05T16:06:55.967Z,18.67
2018-09-05T16:09:24.569Z,18.73
2018-09-05T16:11:53.245Z,16.27
2018-09-05T16:14:21.857Z,19.23
2018-09-05T16:16:50.468Z,19.93
2018-09-05T16:19:19.128Z,17.90
2018-09-05T16:21:49.843Z,19.40
2018-09-05T16:24:18.482Z,17.40
2018-09-05T16:26:47.151Z,17.67
2018-09-05T16:29:15.792Z,17.40
2018-09-05T16:31:44.425Z,16.20
2018-09-05T16:34:12.984Z,16.23
2018-09-05T16:36:41.621Z,16.33
2018-09-05T16:39:11.220Z,17.10
2018-09-05T16:41:42.156Z,17.37
2018-09-05T16:44:11.350Z,17.80
2018-09-05T16:46:40.080Z,17.60
2018-09-05T16:49:08.711Z,17.00
2018-09-05T16:51:39.647Z,16.83
2018-09-05T16:54:08.258Z,17.50
2018-09-05T16:56:37.015Z,16.10
2018-09-05T16:59:05.733Z,15.53
2018-09-05T17:01:34.390Z,16.57
2018-09-05T17:04:03.168Z,16.90
2018-09-05T17:06:31.777Z,16.50
2018-09-05T17:09:00.403Z,17.80
2018-09-05T17:11:29.022Z,17.60
2018-09-05T17:13:57.713Z,19.13
2018-09-05T17:16:26.367Z,18.83
2018-09-05T17:18:55.185Z,17.43
2018-09-05T17:21:23.814Z,17.87
2018-09-05T17:23:52.557Z,19.23
2018-09-05T17:26:22.204Z,17.70
2018-09-05T17:28:50.882Z,19.10
2018-09-05T17:31:19.624Z,18.07
2018-09-05T17:33:52.857Z,20.20
2018-09-05T17:36:21.407Z,20.93
2018-09-05T17:38:49.951Z,20.53
2018-09-05T17:41:18.595Z,19.50
2018-09-05T17:43:47.214Z,20.87
2018-09-05T17:46:15.972Z,20.50
2018-09-05T17:48:46.605Z,22.37
2018-09-05T17:51:15.263Z,20.43
2018-09-05T17:53:43.980Z,18.70
2018-09-05T17:56:12.526Z,21.50
2018-09-05T17:58:41.100Z,22.23
2018-09-05T18:01:12.342Z,20.60
2018-09-05T18:03:40.954Z,20.07
2018-09-05T18:06:09.571Z,22.20
2018-09-05T18:08:38.205Z,19.90
2018-09-05T18:11:06.889Z,19.93
2018-09-05T18:13:35.423Z,21.57
2018-09-05T18:16:04.062Z,23.77
2018-09-05T18:18:32.733Z,20.87
2018-09-05T18:21:01.441Z,22.33
2018-09-05T18:23:30.097Z,22.90
2018-09-05T18:25:58.805Z,26.60
2018-09-05T18:28:27.552Z,24.10
2018-09-05T18:30:56.124Z,22.13
2018-09-05T18:33:25.760Z,19.73
2018-09-05T18:35:54.279Z,22.70
2018-09-05T18:38:22.969Z,20.53
2018-09-05T18:40:51.641Z,19.23
2018-09-05T18:43:20.256Z,19.43
2018-09-05T18:45:49.242Z,18.30
2018-09-05T18:51:08.602Z,20.40
2018-09-05T18:53:40.364Z,18.33
2018-09-05T18:56:09.013Z,18.87
2018-09-05T18:58:37.617Z,18.13
2018-09-05T19:01:07.294Z,20.63
2018-09-05T19:03:35.906Z,19.60
2018-09-05T19:06:04.554Z,20.30
2018-09-05T19:08:33.178Z,19.87
2018-09-05T19:11:01.777Z,21.77
2018-09-05T19:13:30.377Z,19.90
2018-09-05T19:16:00.114Z,21.70
2018-09-05T19:18:28.814Z,18.87
2018-09-05T19:20:57.289Z,23.03
2018-09-05T19:23:25.865Z,20.27
2018-09-05T19:25:54.466Z,18.07
2018-09-05T19:28:23.029Z,18.97
2018-09-05T19:30:52.666Z,18.37
2018-09-05T19:33:21.229Z,17.53
2018-09-05T19:35:50.237Z,20.57
2018-09-05T19:38:18.827Z,18.40
2018-09-05T19:40:47.483Z,19.07
2018-09-05T19:43:16.026Z,19.53
2018-09-05T19:45:44.619Z,16.40
2018-09-05T19:48:13.210Z,19.20
2018-09-05T19:50:41.963Z,19.50
2018-09-05T19:53:10.505Z,18.90
2018-09-05T19:55:39.146Z,17.07
2018-09-05T19:58:07.765Z,19.77
2018-09-05T20:00:36.332Z,18.40
2018-09-05T20:03:04.949Z,18.50
2018-09-05T20:05:33.514Z,21.63
2018-09-05T20:08:02.139Z,19.50
2018-09-05T20:10:30.720Z,18.60
2018-09-05T20:12:59.293Z,21.40
2018-09-05T20:15:27.927Z,17.80
2018-09-05T20:17:56.548Z,20.03
2018-09-05T20:20:25.111Z,24.63
2018-09-05T20:22:53.680Z,19.47
2018-09-05T20:25:22.269Z,18.47
2018-09-05T20:27:50.898Z,22.00
2018-09-05T20:30:19.492Z,20.67
2018-09-05T20:32:48.024Z,19.20
2018-09-05T20:35:16.981Z,22.30
2018-09-05T20:37:45.931Z,19.87
2018-09-05T20:40:14.802Z,21.70
2018-09-05T20:42:43.731Z,20.83
2018-09-05T20:45:12.413Z,21.13
2018-09-05T20:47:41.054Z,20.60
2018-09-05T20:50:09.737Z,24.90
2018-09-05T20:52:38.385Z,26.30
2018-09-05T20:55:06.965Z,24.17
2018-09-05T20:57:35.586Z,19.67
2018-09-05T21:00:04.384Z,21.10
2018-09-05T21:02:32.970Z,22.17
2018-09-05T21:05:01.597Z,24.00
2018-09-05T21:07:30.221Z,25.10
2018-09-05T21:09:58.884Z,24.47
2018-09-05T21:12:27.480Z,26.20
2018-09-05T21:14:56.364Z,21.27
2018-09-05T21:17:25.314Z,21.90
2018-09-05T21:19:54.186Z,25.20
2018-09-05T21:22:22.817Z,23.83
2018-09-05T21:24:51.396Z,20.20
2018-09-05T21:27:20.092Z,20.33
2018-09-05T21:29:48.619Z,21.97
2018-09-05T21:32:17.299Z,20.20
2018-09-05T21:34:45.833Z,21.23
2018-09-05T21:37:14.432Z,22.43
2018-09-05T21:39:42.965Z,24.60
2018-09-05T21:42:11.606Z,24.10
2018-09-05T21:44:40.137Z,22.50
2018-09-05T21:47:08.728Z,26.87
2018-09-05T21:49:37.322Z,24.17
2018-09-05T21:52:06.162Z,24.40
2018-09-05T21:54:34.810Z,23.40
2018-09-05T21:57:03.401Z,25.07
2018-09-05T21:59:32.011Z,23.03
2018-09-05T22:02:00.630Z,27.23
2018-09-05T22:04:29.203Z,23.40
2018-09-05T22:06:57.772Z,26.07
2018-09-05T22:09:26.349Z,30.87
2018-09-05T22:11:54.921Z,25.23
2018-09-05T22:14:23.615Z,26.50
2018-09-05T22:16:52.213Z,29.10
2018-09-05T22:19:20.873Z,33.30
2018-09-05T22:21:49.487Z,28.53
2018-09-05T22:24:18.060Z,25.00
2018-09-05T22:26:47.608Z,26.13
2018-09-05T22:29:16.210Z,26.03
2018-09-05T22:31:44.808Z,26.40
2018-09-05T22:34:13.773Z,27.93
2018-09-05T22:36:42.615Z,26.63
2018-09-05T22:39:11.536Z,25.07
2018-09-05T22:41:40.416Z,30.13
2018-09-05T22:44:20.112Z,26.70
2018-09-05T22:46:59.899Z,25.27
2018-09-05T22:49:58.812Z,31.80
2018-09-05T22:54:46.432Z,27.90
2018-09-05T22:57:29.770Z,32.13
2018-09-05T23:02:13.373Z,32.50
2018-09-05T23:05:10.352Z,32.63
2018-09-05T23:08:37.210Z,29.97
2018-09-05T23:11:17.580Z,29.63
2018-09-05T23:14:04.213Z,32.90
2018-09-05T23:17:47.827Z,30.40
2018-09-05T23:20:37.322Z,31.47
2018-09-05T23:23:16.931Z,30.67
2018-09-05T23:25:45.592Z,30.47
2018-09-05T23:28:14.141Z,34.93
2018-09-05T23:30:42.733Z,30.63
2018-09-05T23:33:11.381Z,31.13
2018-09-05T23:35:40.011Z,30.93
2018-09-05T23:38:08.643Z,33.60
2018-09-05T23:40:37.232Z,30.83
2018-09-05T23:43:05.842Z,29.93
2018-09-05T23:45:34.447Z,30.53
2018-09-05T23:48:03.096Z,31.07
2018-09-05T23:50:32.779Z,31.13
2018-09-05T23:53:01.345Z,33.70
2018-09-05T23:55:30.235Z,30.57
2018-09-05T23:57:59.075Z,29.93
